createdAt,value
2018-11-07T00:02:28.851Z,19.79
2018-11-07T00:05:05.718Z,19.57
2018-11-07T00:07:41.894Z,18.45
2018-11-07T00:10:18.138Z,19.08
2018-11-07T00:12:54.142Z,18.46
2018-11-07T00:15:31.440Z,18.45
2018-11-07T00:18:08.932Z,18.80
2018-11-07T00:20:56.329Z,18.31
2018-11-07T00:23:33.281Z,19.33
2018-11-07T00:26:10.467Z,18.10
2018-11-07T00:28:47.336Z,18.77
2018-11-07T00:31:23.730Z,18.04
2018-11-07T00:33:59.586Z,18.68
2018-11-07T00:36:35.609Z,18.82
2018-11-07T00:39:13.019Z,19.00
2018-11-07T00:41:49.142Z,18.68
2018-11-07T00:44:25.152Z,19.10
2018-11-07T00:47:01.332Z,18.51
2018-11-07T00:49:37.333Z,18.56
2018-11-07T00:52:13.334Z,18.83
2018-11-07T00:54:49.789Z,18.11
2018-11-07T01:00:21.139Z,18.92
2018-11-07T01:02:57.568Z,18.45
2018-11-07T01:05:33.588Z,18.11
2018-11-07T01:08:10.581Z,18.93
2018-11-07T01:10:46.928Z,18.75
2018-11-07T01:13:24.169Z,18.90
2018-11-07T01:16:01.293Z,19.01
2018-11-07T01:18:37.378Z,18.66
2018-11-07T01:21:13.350Z,19.36
2018-11-07T01:23:49.763Z,19.71
2018-11-07T01:26:25.626Z,18.56
2018-11-07T01:29:02.932Z,19.27
2018-11-07T01:31:40.453Z,19.61
2018-11-07T01:34:16.548Z,19.23
2018-11-07T01:36:54.179Z,19.93
2018-11-07T01:39:31.374Z,19.42
2018-11-07T01:42:09.421Z,19.63
2018-11-07T01:44:50.504Z,19.44
2018-11-07T01:47:26.398Z,19.12
2018-11-07T01:50:05.514Z,20.37
2018-11-07T01:52:42.765Z,20.48
2018-11-07T01:55:20.917Z,19.51
2018-11-07T01:57:57.796Z,19.74
2018-11-07T02:00:37.206Z,20.80
2018-11-07T02:03:17.539Z,20.35
2018-11-07T02:05:54.106Z,20.51
2018-11-07T02:08:38.310Z,20.98
2018-11-07T02:11:16.206Z,20.49
2018-11-07T02:13:52.297Z,20.30
2018-11-07T02:16:31.348Z,20.84
2018-11-07T02:19:10.244Z,21.37
2018-11-07T02:21:46.025Z,21.54
2018-11-07T02:24:22.960Z,20.69
2018-11-07T02:27:00.394Z,20.87
2018-11-07T02:29:37.876Z,20.94
2018-11-07T02:32:16.205Z,21.82
2018-11-07T02:34:52.955Z,21.98
2018-11-07T02:37:29.442Z,21.88
2018-11-07T02:40:06.931Z,22.40
2018-11-07T02:45:27.323Z,22.51
2018-11-07T02:48:06.124Z,21.91
2018-11-07T02:50:42.232Z,22.70
2018-11-07T02:53:19.421Z,22.68
2018-11-07T02:55:56.209Z,22.74
2018-11-07T02:58:33.567Z,21.76
2018-11-07T03:01:09.812Z,22.36
2018-11-07T03:03:45.999Z,21.84
2018-11-07T03:06:23.019Z,22.64
2018-11-07T03:09:01.229Z,22.37
2018-11-07T03:11:37.398Z,23.05
2018-11-07T03:14:14.332Z,23.21
2018-11-07T03:16:51.197Z,23.13
2018-11-07T03:19:27.218Z,23.18
2018-11-07T03:22:04.209Z,22.82
2018-11-07T03:24:41.115Z,22.74
2018-11-07T03:27:18.873Z,22.86
2018-11-07T03:29:55.040Z,22.19
2018-11-07T03:32:32.478Z,22.39
2018-11-07T03:35:08.859Z,23.07
2018-11-07T03:38:40.441Z,22.76
2018-11-07T03:41:16.579Z,23.60
2018-11-07T03:43:54.207Z,23.27
2018-11-07T03:46:31.216Z,23.56
2018-11-07T03:49:08.343Z,22.93
2018-11-07T03:51:45.025Z,23.40
2018-11-07T03:54:21.416Z,23.84
2018-11-07T03:56:57.822Z,22.67
2018-11-07T03:59:33.657Z,23.44
2018-11-07T04:02:09.978Z,23.95
2018-11-07T04:04:46.200Z,23.56
2018-11-07T04:07:22.144Z,23.88
2018-11-07T04:09:57.926Z,23.21
2018-11-07T04:12:33.776Z,23.50
2018-11-07T04:15:11.469Z,23.42
2018-11-07T04:17:48.238Z,22.91
2018-11-07T04:20:24.798Z,24.24
2018-11-07T04:23:00.567Z,22.99
2018-11-07T04:25:37.197Z,23.61
2018-11-07T04:28:13.360Z,24.26
2018-11-07T04:30:49.137Z,24.63
2018-11-07T04:33:25.612Z,24.91
2018-11-07T04:36:01.592Z,24.16
2018-11-07T04:38:38.019Z,24.43
2018-11-07T04:41:14.630Z,24.70
2018-11-07T04:43:50.467Z,24.95
2018-11-07T04:46:26.911Z,24.26
2018-11-07T04:50:53.182Z,25.13
2018-11-07T04:53:28.863Z,24.53
2018-11-07T04:56:05.143Z,25.07
2018-11-07T04:58:44.366Z,25.05
2018-11-07T05:01:20.365Z,25.21
2018-11-07T05:03:56.429Z,24.98
2018-11-07T05:06:32.270Z,25.99
2018-11-07T05:09:08.606Z,26.07
2018-11-07T05:11:45.222Z,24.99
2018-11-07T05:14:21.277Z,25.75
2018-11-07T05:16:57.043Z,25.78
2018-11-07T05:19:33.123Z,25.87
2018-11-07T05:22:09.093Z,26.08
2018-11-07T05:24:45.427Z,25.78
2018-11-07T05:27:21.444Z,25.36
2018-11-07T05:29:57.261Z,25.93
2018-11-07T05:32:33.254Z,26.59
2018-11-07T05:35:10.278Z,25.82
2018-11-07T05:37:46.604Z,25.78
2018-11-07T05:40:22.961Z,25.63
2018-11-07T05:42:59.597Z,26.20
2018-11-07T05:45:35.683Z,25.51
2018-11-07T05:48:12.259Z,26.20
2018-11-07T05:50:48.262Z,26.20
2018-11-07T05:53:24.387Z,26.70
2018-11-07T05:56:00.266Z,26.21
2018-11-07T05:58:36.215Z,26.54
2018-11-07T06:01:12.298Z,25.88
2018-11-07T06:03:48.456Z,26.94
2018-11-07T06:06:24.996Z,26.64
2018-11-07T06:09:01.032Z,25.99
2018-11-07T06:11:37.993Z,25.91
2018-11-07T06:14:14.469Z,26.54
2018-11-07T06:16:51.400Z,26.60
2018-11-07T06:19:28.046Z,26.16
2018-11-07T06:22:05.075Z,27.21
2018-11-07T06:24:41.287Z,26.03
2018-11-07T06:27:17.620Z,25.16
2018-11-07T06:29:53.799Z,25.63
2018-11-07T06:32:30.397Z,25.36
2018-11-07T06:35:06.929Z,25.33
2018-11-07T06:37:43.403Z,25.83
2018-11-07T06:40:20.616Z,25.31
2018-11-07T06:42:57.013Z,25.55
2018-11-07T06:45:33.677Z,24.79
2018-11-07T06:48:09.757Z,24.87
2018-11-07T06:50:46.282Z,24.74
2018-11-07T06:53:22.560Z,24.69
2018-11-07T06:57:41.262Z,24.95
2018-11-07T07:00:20.481Z,25.13
2018-11-07T07:02:56.593Z,24.67
2018-11-07T07:05:32.502Z,24.72
2018-11-07T07:08:08.466Z,24.55
2018-11-07T07:10:44.272Z,24.96
2018-11-07T07:13:20.478Z,24.80
2018-11-07T07:15:56.524Z,24.71
2018-11-07T07:18:32.502Z,24.41
2018-11-07T07:21:08.497Z,24.45
2018-11-07T07:23:44.328Z,23.01
2018-11-07T07:26:20.300Z,23.57
2018-11-07T07:28:56.421Z,23.40
2018-11-07T07:31:32.313Z,23.31
2018-11-07T07:34:08.297Z,23.53
2018-11-07T07:36:44.424Z,23.45
2018-11-07T07:39:20.634Z,23.35
2018-11-07T07:41:56.722Z,22.32
2018-11-07T07:44:32.689Z,22.87
2018-11-07T07:47:08.985Z,22.46
2018-11-07T07:49:45.309Z,22.98
2018-11-07T07:52:21.302Z,22.66
2018-11-07T07:54:56.963Z,22.19
2018-11-07T07:57:33.094Z,22.49
2018-11-07T08:00:14.614Z,22.41
2018-11-07T08:02:53.747Z,22.55
2018-11-07T08:05:30.320Z,22.45
2018-11-07T08:08:07.076Z,22.31
2018-11-07T08:10:43.317Z,21.87
2018-11-07T08:13:19.703Z,21.91
2018-11-07T08:15:56.027Z,22.25
2018-11-07T08:18:32.107Z,22.35
2018-11-07T08:21:08.789Z,22.31
2018-11-07T08:23:45.314Z,22.65
2018-11-07T08:26:21.306Z,22.84
2018-11-07T08:28:57.444Z,22.64
2018-11-07T08:32:51.699Z,22.12
2018-11-07T08:35:27.314Z,22.15
2018-11-07T08:38:04.351Z,22.36
2018-11-07T08:40:40.682Z,20.80
2018-11-07T08:43:17.277Z,21.34
2018-11-07T08:45:53.499Z,21.66
2018-11-07T08:48:29.554Z,22.33
2018-11-07T08:51:06.233Z,23.12
2018-11-07T08:53:43.002Z,23.19
2018-11-07T08:56:19.998Z,22.69
2018-11-07T08:58:56.331Z,22.16
2018-11-07T09:04:09.321Z,22.80
2018-11-07T09:06:45.662Z,22.34
2018-11-07T09:09:21.959Z,23.51
2018-11-07T09:11:58.852Z,23.65
2018-11-07T09:14:35.458Z,23.15
2018-11-07T09:17:11.306Z,22.89
2018-11-07T09:19:47.734Z,23.27
2018-11-07T09:22:24.128Z,23.35
2018-11-07T09:25:03.528Z,23.99
2018-11-07T09:27:39.768Z,24.02
2018-11-07T09:30:21.503Z,23.36
2018-11-07T09:32:57.487Z,22.85
2018-11-07T09:35:33.728Z,22.92
2018-11-07T09:38:10.515Z,23.98
2018-11-07T09:40:47.249Z,22.81
2018-11-07T09:43:24.041Z,23.56
2018-11-07T09:46:01.040Z,23.08
2018-11-07T09:48:37.666Z,23.13
2018-11-07T09:51:14.142Z,24.40
2018-11-07T09:53:50.744Z,23.09
2018-11-07T09:56:28.407Z,23.68
2018-11-07T09:59:04.813Z,23.36
2018-11-07T10:01:41.087Z,23.84
2018-11-07T10:04:17.583Z,24.20
2018-11-07T10:06:53.465Z,23.32
2018-11-07T10:09:29.554Z,23.45
2018-11-07T10:12:05.897Z,23.77
2018-11-07T10:14:42.226Z,24.21
2018-11-07T10:17:18.567Z,23.62
2018-11-07T10:19:55.108Z,23.85
2018-11-07T10:22:31.320Z,23.62
2018-11-07T10:25:07.710Z,23.65
2018-11-07T10:27:43.840Z,23.38
2018-11-07T10:30:21.659Z,23.90
2018-11-07T10:34:23.293Z,22.90
2018-11-07T10:36:59.199Z,24.20
2018-11-07T10:39:35.042Z,23.41
2018-11-07T10:42:11.506Z,23.85
2018-11-07T10:44:48.357Z,23.85
2018-11-07T10:47:24.909Z,23.55
2018-11-07T10:50:01.334Z,24.00
2018-11-07T10:52:38.177Z,23.60
2018-11-07T10:55:15.352Z,24.62
2018-11-07T10:57:51.997Z,24.27
2018-11-07T11:00:32.161Z,23.54
2018-11-07T11:03:12.390Z,24.30
2018-11-07T11:05:48.536Z,23.73
2018-11-07T11:10:34.759Z,23.80
2018-11-07T11:13:11.493Z,23.79
2018-11-07T11:15:47.359Z,23.29
2018-11-07T11:18:23.807Z,24.43
2018-11-07T11:21:00.806Z,24.02
2018-11-07T11:23:37.961Z,23.52
2018-11-07T11:26:14.012Z,23.91
2018-11-07T11:28:50.990Z,23.26
2018-11-07T11:31:27.588Z,23.70
2018-11-07T11:34:04.087Z,23.30
2018-11-07T11:36:40.978Z,23.96
2018-11-07T11:39:17.703Z,23.80
2018-11-07T11:41:54.702Z,23.96
2018-11-07T11:44:30.701Z,23.96
2018-11-07T11:47:07.021Z,23.92
2018-11-07T11:49:43.621Z,23.85
2018-11-07T11:52:19.789Z,24.19
2018-11-07T11:54:56.601Z,24.04
2018-11-07T11:57:33.291Z,23.92
2018-11-07T12:00:11.296Z,24.46
2018-11-07T12:02:47.709Z,24.61
2018-11-07T12:05:23.920Z,24.36
2018-11-07T12:08:00.508Z,23.58
2018-11-07T12:10:36.705Z,24.23
2018-11-07T12:14:33.562Z,23.50
2018-11-07T12:17:09.504Z,23.68
2018-11-07T12:19:45.729Z,23.92
2018-11-07T12:22:22.562Z,24.67
2018-11-07T12:24:58.363Z,23.42
2018-11-07T12:27:34.728Z,23.63
2018-11-07T12:30:14.015Z,24.03
2018-11-07T12:32:51.759Z,24.26
2018-11-07T12:35:28.054Z,24.22
2018-11-07T12:38:04.020Z,24.15
2018-11-07T12:40:40.398Z,23.89
2018-11-07T12:43:16.569Z,24.34
2018-11-07T12:45:53.613Z,23.32
2018-11-07T12:48:30.393Z,24.57
2018-11-07T12:51:06.518Z,23.90
2018-11-07T12:53:43.142Z,23.40
2018-11-07T12:56:19.201Z,24.61
2018-11-07T12:58:55.751Z,23.55
2018-11-07T13:01:32.203Z,24.53
2018-11-07T13:04:08.574Z,23.32
2018-11-07T13:06:44.577Z,24.67
2018-11-07T13:09:20.592Z,23.67
2018-11-07T13:11:57.373Z,24.77
2018-11-07T13:14:34.389Z,24.39
2018-11-07T13:17:10.569Z,23.60
2018-11-07T13:19:46.872Z,23.28
2018-11-07T13:22:23.168Z,23.80
2018-11-07T13:24:59.790Z,24.50
2018-11-07T13:27:36.355Z,23.96
2018-11-07T13:30:18.393Z,23.77
2018-11-07T13:32:54.597Z,23.90
2018-11-07T13:35:30.817Z,23.82
2018-11-07T13:38:07.457Z,24.24
2018-11-07T13:40:44.178Z,23.39
2018-11-07T13:43:20.405Z,23.33
2018-11-07T13:45:56.610Z,23.70
2018-11-07T13:48:32.602Z,23.99
2018-11-07T13:51:09.534Z,24.04
2018-11-07T13:53:45.590Z,23.61
2018-11-07T13:56:22.963Z,23.78
2018-11-07T13:58:59.565Z,24.16
2018-11-07T14:01:35.563Z,23.57
2018-11-07T14:04:11.991Z,23.14
2018-11-07T14:06:48.326Z,23.51
2018-11-07T14:09:24.414Z,24.13
2018-11-07T14:12:00.992Z,23.92
2018-11-07T14:14:37.577Z,24.12
2018-11-07T14:17:14.176Z,24.17
2018-11-07T14:19:50.222Z,23.77
2018-11-07T14:22:26.417Z,24.09
2018-11-07T14:25:02.732Z,24.09
2018-11-07T14:27:39.694Z,24.13
2018-11-07T14:30:18.764Z,23.62
2018-11-07T14:33:02.217Z,23.82
2018-11-07T14:35:38.565Z,24.24
2018-11-07T14:38:15.338Z,22.65
2018-11-07T14:40:51.868Z,23.63
2018-11-07T14:43:28.437Z,23.77
2018-11-07T14:46:04.641Z,24.57
2018-11-07T14:48:41.107Z,23.65
2018-11-07T14:51:17.613Z,24.05
2018-11-07T14:53:53.436Z,24.09
2018-11-07T14:56:29.825Z,24.12
2018-11-07T14:59:06.434Z,23.99
2018-11-07T15:01:44.471Z,23.34
2018-11-07T15:04:20.844Z,24.12
2018-11-07T15:06:57.350Z,23.78
2018-11-07T15:09:33.776Z,24.65
2018-11-07T15:12:10.449Z,23.62
2018-11-07T15:14:46.619Z,24.01
2018-11-07T15:17:23.284Z,24.08
2018-11-07T15:19:59.885Z,23.95
2018-11-07T15:22:39.839Z,24.00
2018-11-07T15:25:17.667Z,23.86
2018-11-07T15:27:53.951Z,24.63
2018-11-07T15:30:30.788Z,24.81
2018-11-07T15:33:07.450Z,23.67
2018-11-07T15:35:43.859Z,23.90
2018-11-07T15:38:21.445Z,24.32
2018-11-07T15:40:58.295Z,24.56
2018-11-07T15:43:34.834Z,23.96
2018-11-07T15:46:11.419Z,23.54
2018-11-07T15:48:47.950Z,25.20
2018-11-07T15:51:28.224Z,23.74
2018-11-07T15:54:04.513Z,23.73
2018-11-07T15:56:41.322Z,24.52
2018-11-07T15:59:17.625Z,25.07
2018-11-07T16:01:54.041Z,24.67
2018-11-07T16:04:30.635Z,24.08
2018-11-07T16:07:07.202Z,23.75
2018-11-07T16:09:43.629Z,24.12
2018-11-07T16:12:20.236Z,25.01
2018-11-07T16:14:56.646Z,23.83
2018-11-07T16:17:33.090Z,24.54
2018-11-07T16:20:12.034Z,25.09
2018-11-07T16:22:48.644Z,24.79
2018-11-07T16:25:25.239Z,24.49
2018-11-07T16:28:01.897Z,25.02
2018-11-07T16:30:41.408Z,24.48
2018-11-07T16:33:17.627Z,24.99
2018-11-07T16:35:53.691Z,24.28
2018-11-07T16:38:29.918Z,24.91
2018-11-07T16:41:06.536Z,24.44
2018-11-07T16:43:43.640Z,25.34
2018-11-07T16:46:20.725Z,24.25
2018-11-07T16:48:57.464Z,24.12
2018-11-07T16:51:34.127Z,25.46
2018-11-07T16:54:13.829Z,25.41
2018-11-07T16:56:50.316Z,24.55
2018-11-07T16:59:26.650Z,25.09
2018-11-07T17:02:03.498Z,25.04
2018-11-07T17:04:39.915Z,25.38
2018-11-07T17:07:16.814Z,24.89
2018-11-07T17:09:53.255Z,25.21
2018-11-07T17:12:29.896Z,25.55
2018-11-07T17:15:06.598Z,24.93
2018-11-07T17:17:43.075Z,24.59
2018-11-07T17:20:19.661Z,24.39
2018-11-07T17:22:55.444Z,25.12
2018-11-07T17:25:31.840Z,24.89
2018-11-07T17:28:07.480Z,25.38
2018-11-07T17:30:45.349Z,25.06
2018-11-07T17:33:21.445Z,25.44
2018-11-07T17:38:07.096Z,25.47
2018-11-07T17:40:44.106Z,25.31
2018-11-07T17:43:20.331Z,24.96
2018-11-07T17:45:56.292Z,24.52
2018-11-07T17:48:32.727Z,25.04
2018-11-07T17:51:09.247Z,24.67
2018-11-07T17:53:45.471Z,25.08
2018-11-07T17:56:21.956Z,25.44
2018-11-07T18:00:47.248Z,25.16
2018-11-07T18:03:23.613Z,25.43
2018-11-07T18:05:59.613Z,25.77
2018-11-07T18:08:35.609Z,24.66
2018-11-07T18:11:12.489Z,25.11
2018-11-07T18:15:34.685Z,25.10
2018-11-07T18:18:11.381Z,24.50
2018-11-07T18:20:47.184Z,25.75
2018-11-07T18:23:23.470Z,25.60
2018-11-07T18:25:59.214Z,25.07
2018-11-07T18:28:35.449Z,25.78
2018-11-07T18:31:11.715Z,25.27
2018-11-07T18:33:48.511Z,24.84
2018-11-07T18:36:25.271Z,25.98
2018-11-07T18:39:01.695Z,24.78
2018-11-07T18:41:37.622Z,25.78
2018-11-07T18:44:13.545Z,25.40
2018-11-07T18:46:49.836Z,25.48
2018-11-07T18:52:04.688Z,25.37
2018-11-07T18:54:40.685Z,24.52
2018-11-07T18:57:16.778Z,24.95
2018-11-07T18:59:52.704Z,25.83
2018-11-07T19:02:29.262Z,24.92
2018-11-07T19:06:50.182Z,25.15
2018-11-07T19:09:26.629Z,25.30
2018-11-07T19:12:02.419Z,25.21
2018-11-07T19:14:38.801Z,25.38
2018-11-07T19:17:15.524Z,25.68
2018-11-07T19:19:51.533Z,25.22
2018-11-07T19:25:23.680Z,25.89
2018-11-07T19:29:49.488Z,25.31
2018-11-07T19:32:25.530Z,25.67
2018-11-07T19:35:47.770Z,25.05
2018-11-07T19:38:23.981Z,25.12
2018-11-07T19:41:00.523Z,25.28
2018-11-07T19:43:36.515Z,25.59
2018-11-07T19:46:12.742Z,25.36
2018-11-07T19:48:48.850Z,25.16
2018-11-07T19:51:24.878Z,25.28
2018-11-07T19:54:00.780Z,25.73
2018-11-07T19:56:36.692Z,25.16
2018-11-07T19:59:12.540Z,24.68
2018-11-07T20:01:48.649Z,25.72
2018-11-07T20:04:24.858Z,25.21
2018-11-07T20:07:00.981Z,25.16
2018-11-07T20:09:36.647Z,25.88
2018-11-07T20:12:12.649Z,25.72
2018-11-07T20:14:49.167Z,25.31
2018-11-07T20:17:25.337Z,24.92
2018-11-07T20:20:01.313Z,25.16
2018-11-07T20:22:37.896Z,25.67
2018-11-07T20:25:15.503Z,25.04
2018-11-07T20:27:51.433Z,25.82
2018-11-07T20:30:27.780Z,25.77
2018-11-07T20:33:03.940Z,25.87
2018-11-07T20:35:39.626Z,25.33
2018-11-07T20:38:15.562Z,24.60
2018-11-07T20:40:51.553Z,25.30
2018-11-07T20:43:27.660Z,25.30
2018-11-07T20:46:03.437Z,25.25
2018-11-07T20:48:41.255Z,25.22
2018-11-07T20:51:16.868Z,25.16
2018-11-07T20:54:47.560Z,25.27
2018-11-07T20:57:23.572Z,25.65
2018-11-07T20:59:59.668Z,25.33
2018-11-07T21:04:32.749Z,25.27
2018-11-07T21:07:09.301Z,24.75
2018-11-07T21:09:46.909Z,25.77
2018-11-07T21:12:23.061Z,25.38
2018-11-07T21:15:00.259Z,24.97
2018-11-07T21:17:36.057Z,24.54
2018-11-07T21:20:12.160Z,24.78
2018-11-07T21:22:48.406Z,25.87
2018-11-07T21:25:24.565Z,25.74
2018-11-07T21:28:00.197Z,25.70
2018-11-07T21:30:37.316Z,24.49
2018-11-07T21:33:14.675Z,24.56
2018-11-07T21:35:50.570Z,25.14
2018-11-07T21:38:27.991Z,25.70
2018-11-07T21:41:04.410Z,25.63
2018-11-07T21:43:40.642Z,25.10
2018-11-07T21:46:16.913Z,24.56
2018-11-07T21:48:52.862Z,25.66
2018-11-07T21:51:28.837Z,25.70
2018-11-07T21:54:05.928Z,24.65
2018-11-07T21:56:42.797Z,24.54
2018-11-07T21:59:19.378Z,24.49
2018-11-07T22:01:55.338Z,24.74
2018-11-07T22:04:31.307Z,24.95
2018-11-07T22:07:08.040Z,24.70
2018-11-07T22:09:44.400Z,25.14
2018-11-07T22:12:20.365Z,25.77
2018-11-07T22:14:56.914Z,25.74
2018-11-07T22:17:33.560Z,25.33
2018-11-07T22:20:12.793Z,25.54
2018-11-07T22:22:48.694Z,25.20
2018-11-07T22:25:24.793Z,25.13
2018-11-07T22:28:00.590Z,25.41
2018-11-07T22:30:37.040Z,25.56
2018-11-07T22:33:12.914Z,25.34
2018-11-07T22:35:49.563Z,25.74
2018-11-07T22:38:25.662Z,24.76
2018-11-07T22:41:01.575Z,26.02
2018-11-07T22:43:37.578Z,25.13
2018-11-07T22:46:14.705Z,25.18
2018-11-07T22:48:50.423Z,24.80
2018-11-07T22:51:26.813Z,25.30
2018-11-07T22:54:02.418Z,25.89
2018-11-07T22:56:38.437Z,25.81
2018-11-07T22:59:14.321Z,25.53
2018-11-07T23:01:51.832Z,25.45
2018-11-07T23:04:33.049Z,24.85
2018-11-07T23:07:10.689Z,26.00
2018-11-07T23:09:46.891Z,24.79
2018-11-07T23:14:49.834Z,25.21
2018-11-07T23:17:26.957Z,25.29
2018-11-07T23:20:04.639Z,25.93
2018-11-07T23:22:42.142Z,25.89
2018-11-07T23:25:19.300Z,25.48
2018-11-07T23:27:55.601Z,25.06
2018-11-07T23:30:33.150Z,26.00
2018-11-07T23:33:10.423Z,26.03
2018-11-07T23:35:46.306Z,25.09
2018-11-07T23:38:24.367Z,24.85
2018-11-07T23:41:00.723Z,25.23
2018-11-07T23:43:37.609Z,25.02
2018-11-07T23:46:14.618Z,25.88
2018-11-07T23:48:50.416Z,25.16
2018-11-07T23:54:06.077Z,25.55
2018-11-07T23:56:42.811Z,25.59
2018-11-07T23:59:19.141Z,25.86
